sensor_id;sensor_type;location;lat;lon;timestamp;pressure;altitude;pressure_sealevel;temperature;humidity
45050;BME280;61798;48.048;-1.928;2023-03-01T02:29:33;101909.16;;;-2.87;100.00
45050;BME280;61798;48.048;-1.928;2023-03-01T02:31:40;101869.28;;;-3.13;100.00
45050;BME280;61798;48.048;-1.928;2023-03-01T02:33:49;101861.22;;;-3.27;100.00
45050;BME280;61798;48.048;-1.928;2023-03-01T02:35:55;101906.34;;;-3.01;100.00
45050;BME280;61798;48.048;-1.928;2023-03-01T02:38:03;101901.25;;;-3.04;100.00
45050;BME280;61798;48.048;-1.928;2023-03-01T02:40:15;101905.84;;;-3.10;100.00
45050;BME280;61798;48.048;-1.928;2023-03-01T02:42:28;101859.66;;;-3.51;100.00
45050;BME280;61798;48.048;-1.928;2023-03-01T02:44:36;101899.53;;;-3.25;100.00
45050;BME280;61798;48.048;-1.928;2023-03-01T02:46:46;101902.81;;;-3.20;100.00
45050;BME280;61798;48.048;-1.928;2023-03-01T02:52:10;101788.44;;;-3.80;100.00
45050;BME280;61798;48.048;-1.928;2023-03-01T02:54:24;101885.38;;;-3.21;100.00
45050;BME280;61798;48.048;-1.928;2023-03-01T02:56:44;101858.16;;;-3.37;100.00
45050;BME280;61798;48.048;-1.928;2023-03-01T02:59:06;101875.03;;;-3.24;100.00
45050;BME280;61798;48.048;-1.928;2023-03-01T03:01:39;101850.22;;;-3.36;100.00
45050;BME280;61798;48.048;-1.928;2023-03-01T03:03:52;101852.13;;;-3.40;100.00
45050;BME280;61798;48.048;-1.928;2023-03-01T03:06:21;101866.38;;;-3.26;100.00
45050;BME280;61798;48.048;-1.928;2023-03-01T03:08:49;101851.94;;;-3.35;100.00
45050;BME280;61798;48.048;-1.928;2023-03-01T03:11:25;101857.78;;;-3.30;100.00
45050;BME280;61798;48.048;-1.928;2023-03-01T03:13:53;101778.81;;;-3.80;100.00
45050;BME280;61798;48.048;-1.928;2023-03-01T03:16:03;101822.88;;;-3.50;100.00
45050;BME280;61798;48.048;-1.928;2023-03-01T03:18:25;101830.31;;;-3.40;100.00
45050;BME280;61798;48.048;-1.928;2023-03-01T03:20:38;101795.38;;;-3.60;100.00
45050;BME280;61798;48.048;-1.928;2023-03-01T03:23:01;101806.00;;;-3.24;100.00
45050;BME280;61798;48.048;-1.928;2023-03-01T03:25:08;101837.97;;;-3.16;100.00
45050;BME280;61798;48.048;-1.928;2023-03-01T03:27:21;101830.00;;;-3.34;100.00
45050;BME280;61798;48.048;-1.928;2023-03-01T03:29:34;101805.81;;;-3.58;100.00
45050;BME280;61798;48.048;-1.928;2023-03-01T03:31:40;101824.16;;;-3.39;100.00
45050;BME280;61798;48.048;-1.928;2023-03-01T03:34:02;101785.19;;;-3.66;100.00
45050;BME280;61798;48.048;-1.928;2023-03-01T03:36:23;101838.72;;;-3.33;100.00
45050;BME280;61798;48.048;-1.928;2023-03-01T03:39:02;101827.84;;;-3.43;100.00
45050;BME280;61798;48.048;-1.928;2023-03-01T03:41:26;101817.50;;;-3.46;100.00
45050;BME280;61798;48.048;-1.928;2023-03-01T03:43:47;101790.16;;;-3.60;100.00
45050;BME280;61798;48.048;-1.928;2023-03-01T03:46:00;101830.00;;;-3.34;100.00
45050;BME280;61798;48.048;-1.928;2023-03-01T03:48:22;101836.06;;;-3.32;100.00
45050;BME280;61798;48.048;-1.928;2023-03-01T03:50:46;101760.97;;;-3.72;100.00
45050;BME280;61798;48.048;-1.928;2023-03-01T03:52:53;101812.03;;;-3.42;100.00
45050;BME280;61798;48.048;-1.928;2023-03-01T03:55:00;101769.59;;;-3.69;100.00
45050;BME280;61798;48.048;-1.928;2023-03-01T03:57:09;101812.88;;;-3.41;100.00
45050;BME280;61798;48.048;-1.928;2023-03-01T03:59:16;101816.28;;;-3.39;100.00
45050;BME280;61798;48.048;-1.928;2023-03-01T04:01:22;101792.25;;;-3.49;100.00
45050;BME280;61798;48.048;-1.928;2023-03-01T04:03:30;101818.75;;;-3.36;100.00
45050;BME280;61798;48.048;-1.928;2023-03-01T04:05:39;101788.69;;;-3.46;100.00
45050;BME280;61798;48.048;-1.928;2023-03-01T04:07:47;101817.31;;;-3.04;100.00
45050;BME280;61798;48.048;-1.928;2023-03-01T04:09:54;101775.22;;;-3.38;100.00
45050;BME280;61798;48.048;-1.928;2023-03-01T04:12:02;101802.31;;;-3.20;100.00
45050;BME280;61798;48.048;-1.928;2023-03-01T04:14:09;101792.41;;;-3.33;100.00
45050;BME280;61798;48.048;-1.928;2023-03-01T04:16:18;101782.47;;;-3.45;100.00
45050;BME280;61798;48.048;-1.928;2023-03-01T04:18:28;101782.19;;;-3.20;100.00
45050;BME280;61798;48.048;-1.928;2023-03-01T04:20:37;101722.28;;;-3.47;100.00
45050;BME280;61798;48.048;-1.928;2023-03-01T04:22:45;101795.16;;;-3.16;100.00
45050;BME280;61798;48.048;-1.928;2023-03-01T04:24:54;101809.53;;;-3.25;100.00
45050;BME280;61798;48.048;-1.928;2023-03-01T04:27:02;101805.00;;;-3.41;100.00
45050;BME280;61798;48.048;-1.928;2023-03-01T04:29:08;101799.88;;;-3.43;100.00
45050;BME280;61798;48.048;-1.928;2023-03-01T04:31:19;101771.75;;;-3.21;100.00
45050;BME280;61798;48.048;-1.928;2023-03-01T04:33:27;101777.69;;;-3.35;100.00
45050;BME280;61798;48.048;-1.928;2023-03-01T04:35:34;101759.28;;;-3.73;100.00
45050;BME280;61798;48.048;-1.928;2023-03-01T04:37:41;101722.31;;;-3.66;100.00
45050;BME280;61798;48.048;-1.928;2023-03-01T04:39:47;101759.28;;;-3.73;100.00
45050;BME280;61798;48.048;-1.928;2023-03-01T04:41:53;101779.97;;;-3.66;100.00
45050;BME280;61798;48.048;-1.928;2023-03-01T04:44:04;101797.72;;;-3.54;100.00
45050;BME280;61798;48.048;-1.928;2023-03-01T04:46:15;101731.72;;;-4.01;100.00
45050;BME280;61798;48.048;-1.928;2023-03-01T04:48:22;101751.25;;;-3.89;100.00
45050;BME280;61798;48.048;-1.928;2023-03-01T04:50:28;101772.72;;;-3.80;100.00
45050;BME280;61798;48.048;-1.928;2023-03-01T04:52:38;101786.38;;;-3.74;100.00
45050;BME280;61798;48.048;-1.928;2023-03-01T04:54:47;101797.38;;;-3.65;100.00
45050;BME280;61798;48.048;-1.928;2023-03-01T04:57:04;101795.75;;;-3.68;100.00
45050;BME280;61798;48.048;-1.928;2023-03-01T04:59:11;101770.66;;;-3.74;100.00
45050;BME280;61798;48.048;-1.928;2023-03-01T05:01:20;101797.09;;;-3.59;100.00
45050;BME280;61798;48.048;-1.928;2023-03-01T05:03:27;101802.03;;;-3.53;100.00
45050;BME280;61798;48.048;-1.928;2023-03-01T05:05:36;101776.53;;;-3.68;100.00
45050;BME280;61798;48.048;-1.928;2023-03-01T05:07:42;101794.97;;;-3.51;100.00
45050;BME280;61798;48.048;-1.928;2023-03-01T05:09:48;101770.59;;;-3.53;100.00
45050;BME280;61798;48.048;-1.928;2023-03-01T05:11:56;101800.22;;;-3.51;100.00
45050;BME280;61798;48.048;-1.928;2023-03-01T05:14:11;101793.31;;;-3.53;100.00
45050;BME280;61798;48.048;-1.928;2023-03-01T05:16:21;101770.53;;;-3.70;100.00
45050;BME280;61798;48.048;-1.928;2023-03-01T05:18:29;101752.47;;;-3.77;100.00
45050;BME280;61798;48.048;-1.928;2023-03-01T05:20:37;101783.34;;;-3.45;100.00
45050;BME280;61798;48.048;-1.928;2023-03-01T05:22:44;101740.44;;;-3.81;100.00
45050;BME280;61798;48.048;-1.928;2023-03-01T05:24:56;101767.78;;;-3.67;100.00
45050;BME280;61798;48.048;-1.928;2023-03-01T05:27:03;101805.00;;;-3.41;100.00
45050;BME280;61798;48.048;-1.928;2023-03-01T05:29:11;101778.88;;;-3.62;100.00
45050;BME280;61798;48.048;-1.928;2023-03-01T05:31:19;101747.22;;;-3.77;100.00
45050;BME280;61798;48.048;-1.928;2023-03-01T05:33:26;101769.59;;;-3.50;100.00
45050;BME280;61798;48.048;-1.928;2023-03-01T05:35:33;101794.38;;;-3.38;100.00
45050;BME280;61798;48.048;-1.928;2023-03-01T05:37:49;101760.31;;;-3.57;100.00
45050;BME280;61798;48.048;-1.928;2023-03-01T05:39:55;101768.28;;;-3.59;100.00
45050;BME280;61798;48.048;-1.928;2023-03-01T05:42:02;101755.94;;;-3.57;100.00
45050;BME280;61798;48.048;-1.928;2023-03-01T05:44:09;101710.06;;;-3.85;100.00
45050;BME280;61798;48.048;-1.928;2023-03-01T05:46:23;101778.94;;;-3.44;100.00
45050;BME280;61798;48.048;-1.928;2023-03-01T05:48:33;101706.00;;;-3.73;100.00
45050;BME280;61798;48.048;-1.928;2023-03-01T05:50:44;101773.28;;;-3.35;100.00
45050;BME280;61798;48.048;-1.928;2023-03-01T05:52:56;101773.28;;;-3.35;100.00
45050;BME280;61798;48.048;-1.928;2023-03-01T05:55:03;101766.06;;;-3.49;100.00
45050;BME280;61798;48.048;-1.928;2023-03-01T05:57:10;101764.94;;;-3.43;100.00
45050;BME280;61798;48.048;-1.928;2023-03-01T05:59:17;101784.09;;;-3.23;100.00
45050;BME280;61798;48.048;-1.928;2023-03-01T06:01:24;101761.66;;;-3.48;100.00
45050;BME280;61798;48.048;-1.928;2023-03-01T06:03:31;101743.63;;;-3.55;100.00
45050;BME280;61798;48.048;-1.928;2023-03-01T06:05:45;101772.28;;;-3.32;100.00
45050;BME280;61798;48.048;-1.928;2023-03-01T06:08:02;101769.88;;;-3.37;100.00
45050;BME280;61798;48.048;-1.928;2023-03-01T06:10:22;101768.16;;;-3.38;100.00
45050;BME280;61798;48.048;-1.928;2023-03-01T06:12:48;101766.75;;;-3.45;100.00
45050;BME280;61798;48.048;-1.928;2023-03-01T06:15:03;101725.69;;;-3.64;100.00
45050;BME280;61798;48.048;-1.928;2023-03-01T06:17:24;101754.59;;;-3.46;100.00
45050;BME280;61798;48.048;-1.928;2023-03-01T06:19:38;101750.53;;;-3.54;100.00
45050;BME280;61798;48.048;-1.928;2023-03-01T06:21:56;101705.16;;;-3.74;100.00
45050;BME280;61798;48.048;-1.928;2023-03-01T06:24:04;101731.09;;;-3.67;100.00
45050;BME280;61798;48.048;-1.928;2023-03-01T06:26:13;101724.00;;;-3.65;100.00
45050;BME280;61798;48.048;-1.928;2023-03-01T06:28:20;101725.13;;;-3.52;100.00
45050;BME280;61798;48.048;-1.928;2023-03-01T06:30:31;101741.56;;;-3.48;100.00
45050;BME280;61798;48.048;-1.928;2023-03-01T06:32:38;101732.81;;;-3.66;100.00
45050;BME280;61798;48.048;-1.928;2023-03-01T06:34:47;101727.38;;;-3.44;100.00
45050;BME280;61798;48.048;-1.928;2023-03-01T06:36:53;101750.19;;;-3.26;100.00
45050;BME280;61798;48.048;-1.928;2023-03-01T06:39:00;101750.75;;;-3.39;100.00
45050;BME280;61798;48.048;-1.928;2023-03-01T06:41:09;101762.66;;;-3.32;100.00
45050;BME280;61798;48.048;-1.928;2023-03-01T06:43:19;101718.44;;;-3.40;100.00
45050;BME280;61798;48.048;-1.928;2023-03-01T06:45:25;101762.84;;;-3.36;100.00
45050;BME280;61798;48.048;-1.928;2023-03-01T06:47:34;101735.16;;;-3.42;100.00
45050;BME280;61798;48.048;-1.928;2023-03-01T06:49:42;101768.75;;;-3.31;100.00
45050;BME280;61798;48.048;-1.928;2023-03-01T06:51:49;101762.81;;;-3.35;100.00
45050;BME280;61798;48.048;-1.928;2023-03-01T06:53:59;101721.66;;;-3.15;100.00
45050;BME280;61798;48.048;-1.928;2023-03-01T06:56:05;101765.44;;;-3.17;100.00
45050;BME280;61798;48.048;-1.928;2023-03-01T06:58:12;101752.81;;;-3.26;100.00
45050;BME280;61798;48.048;-1.928;2023-03-01T07:00:25;101741.91;;;-3.56;100.00
45050;BME280;61798;48.048;-1.928;2023-03-01T07:02:32;101761.00;;;-3.34;100.00
45050;BME280;61798;48.048;-1.928;2023-03-01T07:04:42;101740.34;;;-3.60;100.00
45050;BME280;61798;48.048;-1.928;2023-03-01T07:06:48;101746.84;;;-3.50;100.00
45050;BME280;61798;48.048;-1.928;2023-03-01T07:09:02;101746.94;;;-3.51;100.00
45050;BME280;61798;48.048;-1.928;2023-03-01T07:11:09;101767.25;;;-3.37;100.00
45050;BME280;61798;48.048;-1.928;2023-03-01T07:13:15;101751.69;;;-3.40;100.00
45050;BME280;61798;48.048;-1.928;2023-03-01T07:15:21;101754.09;;;-3.35;100.00
45050;BME280;61798;48.048;-1.928;2023-03-01T07:17:27;101745.38;;;-3.36;100.00
45050;BME280;61798;48.048;-1.928;2023-03-01T07:19:34;101748.31;;;-3.24;100.00
45050;BME280;61798;48.048;-1.928;2023-03-01T07:21:41;101701.97;;;-3.61;100.00
45050;BME280;61798;48.048;-1.928;2023-03-01T07:23:47;101716.34;;;-3.51;100.00
45050;BME280;61798;48.048;-1.928;2023-03-01T07:25:55;101682.28;;;-3.70;100.00
45050;BME280;61798;48.048;-1.928;2023-03-01T07:28:09;101752.50;;;-3.20;100.00
45050;BME280;61798;48.048;-1.928;2023-03-01T07:30:17;101729.69;;;-3.37;100.00
45050;BME280;61798;48.048;-1.928;2023-03-01T07:32:26;101745.75;;;-3.26;100.00
45050;BME280;61798;48.048;-1.928;2023-03-01T07:34:32;101769.41;;;-3.08;100.00
45050;BME280;61798;48.048;-1.928;2023-03-01T07:36:38;101767.31;;;-3.01;100.00
45050;BME280;61798;48.048;-1.928;2023-03-01T07:38:49;101774.22;;;-2.99;100.00
45050;BME280;61798;48.048;-1.928;2023-03-01T07:41:00;101778.13;;;-2.90;100.00
45050;BME280;61798;48.048;-1.928;2023-03-01T07:43:07;101752.22;;;-2.96;100.00
45050;BME280;61798;48.048;-1.928;2023-03-01T07:45:13;101764.56;;;-2.80;100.00
45050;BME280;61798;48.048;-1.928;2023-03-01T07:47:19;101725.66;;;-3.08;100.00
45050;BME280;61798;48.048;-1.928;2023-03-01T07:49:25;101761.63;;;-2.74;100.00
45050;BME280;61798;48.048;-1.928;2023-03-01T07:51:34;101712.09;;;-2.98;100.00
45050;BME280;61798;48.048;-1.928;2023-03-01T07:53:40;101754.22;;;-2.66;100.00
45050;BME280;61798;48.048;-1.928;2023-03-01T07:55:46;101729.38;;;-2.76;100.00
45050;BME280;61798;48.048;-1.928;2023-03-01T07:57:52;101743.72;;;-2.66;100.00
45050;BME280;61798;48.048;-1.928;2023-03-01T07:59:59;101743.94;;;-2.70;100.00
45050;BME280;61798;48.048;-1.928;2023-03-01T08:02:05;101758.06;;;-2.37;100.00
45050;BME280;61798;48.048;-1.928;2023-03-01T08:04:11;101773.66;;;-2.34;100.00
45050;BME280;61798;48.048;-1.928;2023-03-01T08:06:18;101695.78;;;-2.69;100.00
45050;BME280;61798;48.048;-1.928;2023-03-01T08:08:24;101760.91;;;-2.24;100.00
45050;BME280;61798;48.048;-1.928;2023-03-01T08:10:30;101753.03;;;-2.24;100.00
45050;BME280;61798;48.048;-1.928;2023-03-01T08:12:36;101742.75;;;-2.29;100.00
45050;BME280;61798;48.048;-1.928;2023-03-01T08:14:42;101756.69;;;-2.10;100.00
45050;BME280;61798;48.048;-1.928;2023-03-01T08:16:49;101762.50;;;-2.04;100.00
45050;BME280;61798;48.048;-1.928;2023-03-01T08:18:55;101756.72;;;-1.94;100.00
45050;BME280;61798;48.048;-1.928;2023-03-01T08:21:07;101749.38;;;-1.87;100.00
45050;BME280;61798;48.048;-1.928;2023-03-01T08:23:13;101749.53;;;-1.91;100.00
45050;BME280;61798;48.048;-1.928;2023-03-01T08:25:19;101705.94;;;-2.11;100.00
45050;BME280;61798;48.048;-1.928;2023-03-01T08:27:25;101704.41;;;-1.99;100.00
45050;BME280;61798;48.048;-1.928;2023-03-01T08:29:32;101694.63;;;-1.95;100.00
45050;BME280;61798;48.048;-1.928;2023-03-01T08:31:39;101728.03;;;-1.65;100.00
45050;BME280;61798;48.048;-1.928;2023-03-01T08:33:46;101734.03;;;-1.63;100.00
45050;BME280;61798;48.048;-1.928;2023-03-01T08:36:05;101729.00;;;-1.51;100.00
45050;BME280;61798;48.048;-1.928;2023-03-01T08:38:12;101703.44;;;-1.64;100.00
45050;BME280;61798;48.048;-1.928;2023-03-01T08:40:18;101713.16;;;-1.50;100.00
45050;BME280;61798;48.048;-1.928;2023-03-01T08:42:24;101729.53;;;-1.28;100.00
45050;BME280;61798;48.048;-1.928;2023-03-01T08:44:30;101690.34;;;-1.49;100.00
45050;BME280;61798;48.048;-1.928;2023-03-01T08:46:38;101739.59;;;-1.20;100.00
45050;BME280;61798;48.048;-1.928;2023-03-01T08:48:46;101717.03;;;-1.24;100.00
45050;BME280;61798;48.048;-1.928;2023-03-01T08:50:52;101746.34;;;-1.00;100.00
45050;BME280;61798;48.048;-1.928;2023-03-01T08:52:58;101692.25;;;-1.20;100.00
45050;BME280;61798;48.048;-1.928;2023-03-01T08:55:04;101717.41;;;-1.00;100.00
45050;BME280;61798;48.048;-1.928;2023-03-01T08:57:10;101699.59;;;-1.11;100.00
45050;BME280;61798;48.048;-1.928;2023-03-01T08:59:18;101683.34;;;-1.18;100.00
45050;BME280;61798;48.048;-1.928;2023-03-01T09:01:25;101716.56;;;-1.00;100.00
45050;BME280;61798;48.048;-1.928;2023-03-01T09:03:31;101733.53;;;-0.75;100.00
45050;BME280;61798;48.048;-1.928;2023-03-01T09:05:37;101726.16;;;-0.54;100.00
45050;BME280;61798;48.048;-1.928;2023-03-01T09:07:43;101716.00;;;-0.60;100.00
45050;BME280;61798;48.048;-1.928;2023-03-01T09:09:49;101681.53;;;-0.71;100.00
45050;BME280;61798;48.048;-1.928;2023-03-01T09:11:55;101709.22;;;-0.49;100.00
45050;BME280;61798;48.048;-1.928;2023-03-01T09:14:01;101681.00;;;-0.62;100.00
45050;BME280;61798;48.048;-1.928;2023-03-01T09:16:07;101717.41;;;-0.25;100.00
45050;BME280;61798;48.048;-1.928;2023-03-01T09:18:14;101653.06;;;-0.65;100.00
45050;BME280;61798;48.048;-1.928;2023-03-01T09:20:20;101695.59;;;-0.12;100.00
45050;BME280;61798;48.048;-1.928;2023-03-01T09:22:26;101690.56;;;-0.02;100.00
45050;BME280;61798;48.048;-1.928;2023-03-01T09:24:32;101672.81;;;-0.13;100.00
45050;BME280;61798;48.048;-1.928;2023-03-01T09:26:38;101655.22;;;-0.13;100.00
45050;BME280;61798;48.048;-1.928;2023-03-01T09:28:45;101693.34;;;0.24;100.00
45050;BME280;61798;48.048;-1.928;2023-03-01T09:30:51;101644.34;;;-0.08;100.00
45050;BME280;61798;48.048;-1.928;2023-03-01T09:32:57;101681.00;;;0.25;100.00
45050;BME280;61798;48.048;-1.928;2023-03-01T09:35:03;101661.53;;;0.13;100.00
45050;BME280;61798;48.048;-1.928;2023-03-01T09:37:10;101678.50;;;0.36;100.00
45050;BME280;61798;48.048;-1.928;2023-03-01T09:39:16;101676.88;;;0.48;100.00
45050;BME280;61798;48.048;-1.928;2023-03-01T09:44:00;101674.06;;;0.65;100.00
45050;BME280;61798;48.048;-1.928;2023-03-01T09:46:11;101680.13;;;0.80;100.00
45050;BME280;61798;48.048;-1.928;2023-03-01T09:48:26;101661.34;;;0.71;100.00
45050;BME280;61798;48.048;-1.928;2023-03-01T09:50:39;101672.19;;;0.67;100.00
45050;BME280;61798;48.048;-1.928;2023-03-01T09:55:15;101657.03;;;0.83;100.00
45050;BME280;61798;48.048;-1.928;2023-03-01T09:57:38;101659.50;;;1.13;100.00
45050;BME280;61798;48.048;-1.928;2023-03-01T10:02:26;101664.56;;;1.03;100.00
45050;BME280;61798;48.048;-1.928;2023-03-01T10:04:45;101664.34;;;1.32;100.00
45050;BME280;61798;48.048;-1.928;2023-03-01T10:07:12;101650.81;;;1.24;100.00
45050;BME280;61798;48.048;-1.928;2023-03-01T10:09:22;101626.34;;;1.22;100.00
45050;BME280;61798;48.048;-1.928;2023-03-01T10:11:32;101621.56;;;1.01;100.00
45050;BME280;61798;48.048;-1.928;2023-03-01T10:13:50;101639.44;;;1.23;100.00
45050;BME280;61798;48.048;-1.928;2023-03-01T10:16:13;101663.81;;;1.40;100.00
45050;BME280;61798;48.048;-1.928;2023-03-01T10:18:25;101693.84;;;1.26;100.00
45050;BME280;61798;48.048;-1.928;2023-03-01T10:20:53;101649.66;;;1.28;100.00
45050;BME280;61798;48.048;-1.928;2023-03-01T10:23:01;101630.97;;;1.18;100.00
45050;BME280;61798;48.048;-1.928;2023-03-01T10:25:13;101671.75;;;1.53;100.00
45050;BME280;61798;48.048;-1.928;2023-03-01T10:27:25;101664.13;;;1.35;100.00
45050;BME280;61798;48.048;-1.928;2023-03-01T10:29:39;101663.94;;;1.39;100.00
45050;BME280;61798;48.048;-1.928;2023-03-01T10:31:50;101664.44;;;1.70;100.00
45050;BME280;61798;48.048;-1.928;2023-03-01T10:33:57;101657.13;;;1.61;100.00
45050;BME280;61798;48.048;-1.928;2023-03-01T10:36:04;101638.31;;;1.78;100.00
45050;BME280;61798;48.048;-1.928;2023-03-01T10:38:12;101620.59;;;1.54;100.00
45050;BME280;61798;48.048;-1.928;2023-03-01T10:40:19;101667.16;;;1.82;100.00
45050;BME280;61798;48.048;-1.928;2023-03-01T10:42:33;101648.00;;;1.91;100.00
45050;BME280;61798;48.048;-1.928;2023-03-01T10:44:44;101644.00;;;1.72;100.00
45050;BME280;61798;48.048;-1.928;2023-03-01T10:46:59;101639.56;;;1.86;100.00
45050;BME280;61798;48.048;-1.928;2023-03-01T10:49:07;101633.16;;;2.02;100.00
45050;BME280;61798;48.048;-1.928;2023-03-01T10:51:17;101630.56;;;2.13;100.00
45050;BME280;61798;48.048;-1.928;2023-03-01T10:53:37;101629.28;;;2.19;100.00
45050;BME280;61798;48.048;-1.928;2023-03-01T10:55:46;101625.66;;;2.20;100.00
45050;BME280;61798;48.048;-1.928;2023-03-01T10:58:07;101612.56;;;2.18;100.00
45050;BME280;61798;48.048;-1.928;2023-03-01T11:02:30;101618.47;;;2.22;100.00
45050;BME280;61798;48.048;-1.928;2023-03-01T11:04:38;101607.25;;;2.43;100.00
45050;BME280;61798;48.048;-1.928;2023-03-01T11:06:58;101569.75;;;2.13;100.00
45050;BME280;61798;48.048;-1.928;2023-03-01T11:09:23;101601.34;;;2.39;100.00
45050;BME280;61798;48.048;-1.928;2023-03-01T11:11:34;101589.81;;;2.40;100.00
45050;BME280;61798;48.048;-1.928;2023-03-01T11:16:10;101605.25;;;2.47;100.00
45050;BME280;61798;48.048;-1.928;2023-03-01T11:18:22;101614.69;;;2.74;100.00
45050;BME280;61798;48.048;-1.928;2023-03-01T11:20:35;101587.34;;;2.62;100.00
45050;BME280;61798;48.048;-1.928;2023-03-01T11:22:54;101592.41;;;2.65;100.00
45050;BME280;61798;48.048;-1.928;2023-03-01T11:25:01;101579.69;;;2.34;100.00
45050;BME280;61798;48.048;-1.928;2023-03-01T11:27:31;101597.94;;;2.62;100.00
45050;BME280;61798;48.048;-1.928;2023-03-01T11:29:47;101592.78;;;2.72;100.00
45050;BME280;61798;48.048;-1.928;2023-03-01T11:31:59;101598.88;;;2.49;100.00
45050;BME280;61798;48.048;-1.928;2023-03-01T11:34:23;101591.94;;;2.35;100.00
45050;BME280;61798;48.048;-1.928;2023-03-01T11:36:53;101611.03;;;2.27;100.00
45050;BME280;61798;48.048;-1.928;2023-03-01T11:41:34;101594.75;;;2.81;100.00
45050;BME280;61798;48.048;-1.928;2023-03-01T11:48:27;101582.19;;;2.72;100.00
45050;BME280;61798;48.048;-1.928;2023-03-01T11:50:50;101581.66;;;2.55;100.00
45050;BME280;61798;48.048;-1.928;2023-03-01T11:53:22;101582.69;;;2.77;100.00
45050;BME280;61798;48.048;-1.928;2023-03-01T12:00:56;101550.19;;;2.75;100.00
45050;BME280;61798;48.048;-1.928;2023-03-01T12:03:27;101562.28;;;3.02;100.00
45050;BME280;61798;48.048;-1.928;2023-03-01T12:06:05;101555.38;;;2.88;100.00
45050;BME280;61798;48.048;-1.928;2023-03-01T12:10:27;101537.34;;;2.93;100.00
45050;BME280;61798;48.048;-1.928;2023-03-01T12:13:03;101532.75;;;3.07;100.00
45050;BME280;61798;48.048;-1.928;2023-03-01T12:15:37;101549.03;;;3.25;100.00
45050;BME280;61798;48.048;-1.928;2023-03-01T12:20:28;101535.88;;;3.35;100.00
45050;BME280;61798;48.048;-1.928;2023-03-01T12:22:57;101527.84;;;3.02;100.00
45050;BME280;61798;48.048;-1.928;2023-03-01T12:25:16;101531.16;;;3.51;100.00
45050;BME280;61798;48.048;-1.928;2023-03-01T12:30:42;101526.63;;;3.86;100.00
45050;BME280;61798;48.048;-1.928;2023-03-01T12:33:03;101514.88;;;3.55;100.00
45050;BME280;61798;48.048;-1.928;2023-03-01T12:35:27;101516.44;;;3.58;100.00
45050;BME280;61798;48.048;-1.928;2023-03-01T12:45:23;101492.88;;;3.76;100.00
45050;BME280;61798;48.048;-1.928;2023-03-01T12:50:15;101480.59;;;3.75;100.00
45050;BME280;61798;48.048;-1.928;2023-03-01T12:52:35;101465.69;;;3.74;100.00
45050;BME280;61798;48.048;-1.928;2023-03-01T12:54:45;101482.28;;;4.09;100.00
45050;BME280;61798;48.048;-1.928;2023-03-01T12:56:53;101475.47;;;4.17;100.00
45050;BME280;61798;48.048;-1.928;2023-03-01T12:59:29;101455.28;;;4.04;100.00
45050;BME280;61798;48.048;-1.928;2023-03-01T13:01:51;101442.22;;;4.12;100.00
45050;BME280;61798;48.048;-1.928;2023-03-01T13:06:22;101448.69;;;4.51;100.00
45050;BME280;61798;48.048;-1.928;2023-03-01T13:08:39;101443.56;;;4.60;100.00
45050;BME280;61798;48.048;-1.928;2023-03-01T13:10:53;101441.78;;;4.70;100.00
45050;BME280;61798;48.048;-1.928;2023-03-01T13:17:33;101422.63;;;4.67;100.00
45050;BME280;61798;48.048;-1.928;2023-03-01T13:19:58;101430.28;;;4.60;100.00
45050;BME280;61798;48.048;-1.928;2023-03-01T13:24:42;101407.19;;;4.92;100.00
45050;BME280;61798;48.048;-1.928;2023-03-01T13:29:25;101406.84;;;4.65;100.00
45050;BME280;61798;48.048;-1.928;2023-03-01T13:35:47;101358.63;;;4.60;100.00
45050;BME280;61798;48.048;-1.928;2023-03-01T13:40:58;101382.16;;;4.84;98.55
45050;BME280;61798;48.048;-1.928;2023-03-01T13:43:28;101377.13;;;4.81;99.42
45050;BME280;61798;48.048;-1.928;2023-03-01T13:45:38;101383.00;;;4.95;100.00
45050;BME280;61798;48.048;-1.928;2023-03-01T13:47:47;101373.50;;;4.92;100.00
45050;BME280;61798;48.048;-1.928;2023-03-01T13:49:59;101368.63;;;5.07;100.00
45050;BME280;61798;48.048;-1.928;2023-03-01T13:52:06;101353.66;;;4.96;100.00
45050;BME280;61798;48.048;-1.928;2023-03-01T13:54:12;101350.56;;;4.91;100.00
45050;BME280;61798;48.048;-1.928;2023-03-01T13:56:27;101331.44;;;4.78;98.43
45050;BME280;61798;48.048;-1.928;2023-03-01T13:58:53;101347.63;;;4.94;100.00
45050;BME280;61798;48.048;-1.928;2023-03-01T14:01:05;101364.03;;;5.20;100.00
45050;BME280;61798;48.048;-1.928;2023-03-01T14:05:19;101339.69;;;5.04;100.00
45050;BME280;61798;48.048;-1.928;2023-03-01T14:07:27;101353.97;;;5.13;100.00
45050;BME280;61798;48.048;-1.928;2023-03-01T14:09:40;101343.59;;;5.30;100.00
45050;BME280;61798;48.048;-1.928;2023-03-01T14:14:45;101349.63;;;5.32;100.00
45050;BME280;61798;48.048;-1.928;2023-03-01T14:17:21;101355.06;;;5.50;100.00
45050;BME280;61798;48.048;-1.928;2023-03-01T14:19:30;101353.25;;;5.51;100.00
45050;BME280;61798;48.048;-1.928;2023-03-01T14:21:36;101344.69;;;5.57;100.00
45050;BME280;61798;48.048;-1.928;2023-03-01T14:23:43;101306.41;;;5.40;100.00
45050;BME280;61798;48.048;-1.928;2023-03-01T14:25:56;101336.47;;;5.31;100.00
45050;BME280;61798;48.048;-1.928;2023-03-01T14:30:33;101330.88;;;5.44;100.00
45050;BME280;61798;48.048;-1.928;2023-03-01T14:32:39;101303.19;;;5.36;100.00
45050;BME280;61798;48.048;-1.928;2023-03-01T14:34:49;101310.88;;;5.39;100.00
45050;BME280;61798;48.048;-1.928;2023-03-01T14:36:56;101299.25;;;5.31;100.00
45050;BME280;61798;48.048;-1.928;2023-03-01T14:39:16;101347.22;;;5.59;100.00
45050;BME280;61798;48.048;-1.928;2023-03-01T14:41:24;101337.03;;;5.44;100.00
45050;BME280;61798;48.048;-1.928;2023-03-01T14:43:31;101338.00;;;5.73;100.00
45050;BME280;61798;48.048;-1.928;2023-03-01T14:45:38;101334.75;;;5.79;100.00
45050;BME280;61798;48.048;-1.928;2023-03-01T14:47:44;101332.81;;;5.71;100.00
45050;BME280;61798;48.048;-1.928;2023-03-01T14:49:56;101307.72;;;5.74;100.00
45050;BME280;61798;48.048;-1.928;2023-03-01T14:52:05;101320.13;;;5.93;100.00
45050;BME280;61798;48.048;-1.928;2023-03-01T14:56:44;101303.41;;;5.63;100.00